Time;durP1;ratioP1;P1;durP2;ratioP2;P2;SDS_P1;SDS_P2;PMS_P1;PMS_P2;Temp;Humidity;BMP_temperature;BMP_pressure;BME280_temperature;BME280_humidity;BME280_pressure;Samples;Min_cycle;Max_cycle;Signal;HPM_P1;HPM_P2
2021/06/18 00:01:24;;;;;;;7.75;5.82;;;24.60;87.40;;;;;;5130102;27;20577;-46
2021/06/18 00:03:51;;;;;;;7.95;5.78;;;24.50;87.10;;;;;;5111350;27;20043;-47
2021/06/18 00:06:19;;;;;;;6.80;5.28;;;24.50;87.10;;;;;;5130894;27;20386;-46
2021/06/18 00:08:47;;;;;;;7.38;5.78;;;24.50;87.10;;;;;;5127255;27;20047;-47
2021/06/18 00:11:15;;;;;;;8.38;5.50;;;24.50;87.20;;;;;;5132815;27;20066;-53
2021/06/18 00:13:42;;;;;;;8.88;5.60;;;24.40;87.20;;;;;;5093148;27;20088;-50
2021/06/18 00:16:11;;;;;;;6.65;5.05;;;24.40;87.30;;;;;;5132727;27;20050;-48
2021/06/18 00:18:40;;;;;;;5.10;4.43;;;24.50;87.60;;;;;;5083147;27;20043;-49
2021/06/18 00:21:08;;;;;;;6.88;4.95;;;24.50;87.70;;;;;;5131241;27;20051;-47
2021/06/18 00:23:36;;;;;;;6.15;4.90;;;24.40;87.10;;;;;;5125730;27;20047;-48
2021/06/18 00:26:04;;;;;;;8.55;5.10;;;24.40;86.90;;;;;;5131226;27;20039;-47
2021/06/18 00:28:31;;;;;;;9.40;5.30;;;24.30;86.70;;;;;;5126318;27;20131;-51
2021/06/18 00:31:08;;;;;;;8.13;5.50;;;24.20;86.80;;;;;;5114199;27;20039;-47
2021/06/18 00:33:37;;;;;;;7.75;5.63;;;24.20;86.10;;;;;;5108408;27;20443;-46
2021/06/18 00:36:05;;;;;;;7.93;5.07;;;24.20;86.20;;;;;;5114149;27;20042;-49
2021/06/18 00:38:33;;;;;;;8.27;5.10;;;24.10;86.50;;;;;;5124760;27;20499;-46
2021/06/18 00:41:00;;;;;;;10.20;6.03;;;24.10;87.50;;;;;;5130633;27;20417;-46
2021/06/18 00:43:28;;;;;;;7.88;6.10;;;24.00;87.40;;;;;;5126290;27;20043;-48
2021/06/18 00:45:57;;;;;;;7.20;5.93;;;24.00;87.80;;;;;;5113817;27;20036;-48
2021/06/18 00:48:26;;;;;;;8.50;5.43;;;23.90;88.30;;;;;;5108507;27;20055;-46
2021/06/18 00:50:53;;;;;;;7.95;5.10;;;23.80;88.60;;;;;;5130977;27;20138;-49
2021/06/18 00:53:22;;;;;;;7.75;5.00;;;23.80;88.70;;;;;;5125244;27;20053;-48
2021/06/18 00:55:50;;;;;;;7.70;4.82;;;23.80;89.00;;;;;;5131876;27;20096;-47
2021/06/18 00:58:22;;;;;;;8.05;5.22;;;23.80;89.00;;;;;;5108107;27;20043;-47
2021/06/18 01:00:50;;;;;;;7.55;5.50;;;23.80;88.30;;;;;;5130175;27;20043;-48
2021/06/18 01:03:18;;;;;;;12.18;5.50;;;23.80;88.00;;;;;;5126007;27;20070;-47
2021/06/18 01:05:46;;;;;;;6.78;4.90;;;23.80;88.70;;;;;;5113703;27;20092;-47
2021/06/18 01:08:44;;;;;;;9.75;6.00;;;23.70;88.90;;;;;;5124937;27;20047;-45
2021/06/18 01:11:30;;;;;;;7.15;5.40;;;23.70;89.00;;;;;;5130676;27;20043;-46
2021/06/18 01:14:01;;;;;;;;;;;23.70;88.90;;;;;;5111638;27;20043;-46
2021/06/18 01:16:35;;;;;;;5.78;4.80;;;23.70;88.90;;;;;;5128429;27;20017;-47
2021/06/18 01:19:26;;;;;;;5.63;4.75;;;23.70;88.40;;;;;;5111078;27;20181;-46
2021/06/18 01:22:09;;;;;;;7.07;5.88;;;23.70;88.00;;;;;;5104084;28;20052;-49
2021/06/18 01:25:01;;;;;;;6.78;5.68;;;23.70;87.80;;;;;;5116485;27;20050;-49
2021/06/18 01:27:32;;;;;;;7.80;5.72;;;23.60;88.10;;;;;;5085312;27;20048;-50
2021/06/18 01:30:12;;;;;;;6.22;4.95;;;23.60;87.80;;;;;;5133804;27;20050;-49
2021/06/18 01:32:45;;;;;;;10.25;5.80;;;23.50;87.70;;;;;;5107516;28;20051;-48
2021/06/18 01:35:19;;;;;;;7.50;5.45;;;23.40;87.70;;;;;;5114282;27;20089;-46
2021/06/18 01:37:52;;;;;;;5.70;4.95;;;23.30;88.00;;;;;;5122088;27;20390;-48
2021/06/18 01:40:22;;;;;;;8.05;5.45;;;23.30;88.20;;;;;;5132056;27;20096;-46
2021/06/18 01:42:51;;;;;;;7.78;5.65;;;23.30;87.90;;;;;;5123288;27;20125;-49
2021/06/18 01:45:23;;;;;;;6.95;5.53;;;23.40;87.90;;;;;;5114657;27;20047;-49
2021/06/18 01:47:50;;;;;;;6.05;4.90;;;23.30;88.10;;;;;;5104839;27;20050;-47
2021/06/18 01:50:22;;;;;;;7.43;5.63;;;23.40;88.40;;;;;;5133241;27;20047;-49
2021/06/18 01:53:08;;;;;;;5.25;4.75;;;23.40;88.70;;;;;;5121987;27;20042;-48
2021/06/18 01:55:38;;;;;;;8.07;6.53;;;23.40;88.70;;;;;;5130380;27;20047;-47
2021/06/18 01:58:06;;;;;;;13.52;6.15;;;23.40;88.80;;;;;;5106617;27;20296;-47
2021/06/18 02:00:39;;;;;;;6.72;5.53;;;23.40;88.50;;;;;;5112961;27;20059;-46
2021/06/18 02:03:14;;;;;;;7.53;5.85;;;23.40;88.40;;;;;;5118015;27;20055;-47
2021/06/18 02:05:43;;;;;;;7.95;5.85;;;23.30;88.50;;;;;;5114443;27;20046;-50
2021/06/18 02:08:13;;;;;;;11.35;6.00;;;23.20;88.90;;;;;;5106700;27;20078;-46
2021/06/18 02:10:44;;;;;;;7.70;6.32;;;23.10;89.20;;;;;;5130879;27;20501;-51
2021/06/18 02:13:14;;;;;;;8.57;6.13;;;23.00;89.70;;;;;;5117575;27;20465;-47
2021/06/18 02:15:43;;;;;;;7.40;5.95;;;23.00;90.10;;;;;;5113008;27;20396;-51
2021/06/18 02:18:15;;;;;;;7.90;5.95;;;22.90;90.20;;;;;;5096855;28;20131;-47
2021/06/18 02:20:44;;;;;;;8.88;5.72;;;22.90;90.10;;;;;;5080481;28;20061;-47
2021/06/18 02:23:14;;;;;;;6.63;5.75;;;23.00;90.20;;;;;;5123592;27;20043;-46
2021/06/18 02:25:43;;;;;;;8.88;6.15;;;23.00;90.10;;;;;;5111831;27;20515;-48
2021/06/18 02:28:11;;;;;;;8.25;6.32;;;23.00;90.00;;;;;;5123213;27;20051;-46
2021/06/18 02:30:39;;;;;;;7.57;5.90;;;23.10;90.10;;;;;;5129639;27;20047;-46
2021/06/18 02:33:13;;;;;;;8.88;6.15;;;23.10;89.80;;;;;;5096081;28;20062;-53
2021/06/18 02:35:43;;;;;;;8.25;5.80;;;23.10;89.60;;;;;;5096288;28;20043;-47
2021/06/18 02:38:11;;;;;;;7.47;5.53;;;23.10;89.50;;;;;;5096316;28;20048;-47
2021/06/18 02:40:41;;;;;;;8.27;5.47;;;23.20;89.20;;;;;;5096203;27;20054;-51
2021/06/18 02:43:08;;;;;;;5.68;4.45;;;23.20;88.90;;;;;;5113489;27;20052;-46
2021/06/18 02:45:37;;;;;;;9.43;5.57;;;23.20;88.80;;;;;;5095744;28;20094;-46
2021/06/18 02:48:23;;;;;;;8.27;5.05;;;23.20;88.70;;;;;;5105904;27;20095;-46
2021/06/18 02:50:51;;;;;;;;;;;23.20;88.60;;;;;;5129322;28;20047;-46
2021/06/18 02:53:41;;;;;;;8.63;5.47;;;23.20;88.20;;;;;;5122783;27;19919;-46
2021/06/18 02:56:31;;;;;;;6.70;4.88;;;23.20;87.90;;;;;;5111687;28;20099;-47
2021/06/18 02:59:23;;;;;;;7.32;5.18;;;23.20;87.60;;;;;;5120674;28;20122;-48
2021/06/18 03:01:53;;;;;;;6.43;5.38;;;23.30;87.60;;;;;;5102818;28;20047;-47
2021/06/18 03:04:23;;;;;;;7.03;5.13;;;23.30;87.40;;;;;;5131371;27;20095;-46
2021/06/18 03:06:54;;;;;;;5.68;4.68;;;23.30;87.10;;;;;;5127552;27;20486;-49
2021/06/18 03:09:31;;;;;;;7.40;4.82;;;23.30;87.10;;;;;;5116483;27;20513;-47
2021/06/18 03:12:00;;;;;;;7.15;4.68;;;23.30;87.00;;;;;;5126063;27;20071;-48
2021/06/18 03:14:31;;;;;;;7.65;5.40;;;23.30;87.10;;;;;;5115305;27;20043;-46
2021/06/18 03:17:00;;;;;;;7.15;5.25;;;23.30;87.00;;;;;;5117994;27;20036;-46
2021/06/18 03:19:36;;;;;;;8.88;6.28;;;23.20;87.50;;;;;;5115302;28;20054;-47
2021/06/18 03:22:07;;;;;;;26.33;12.65;;;23.20;88.30;;;;;;5122405;27;20055;-46
2021/06/18 03:24:35;;;;;;;36.30;16.98;;;23.20;88.70;;;;;;5117655;27;20477;-49
2021/06/18 03:27:04;;;;;;;43.95;20.75;;;23.20;89.20;;;;;;5105065;28;20078;-46
2021/06/18 03:29:32;;;;;;;39.67;18.58;;;23.10;89.00;;;;;;5117141;27;20070;-46
2021/06/18 03:32:01;;;;;;;20.88;13.00;;;23.10;89.60;;;;;;5125750;27;20536;-50
2021/06/18 03:34:30;;;;;;;14.80;8.32;;;23.00;89.40;;;;;;5134317;27;20045;-50
2021/06/18 03:37:00;;;;;;;12.15;6.72;;;23.00;89.60;;;;;;5105228;28;20497;-47
2021/06/18 03:39:28;;;;;;;8.25;6.47;;;22.90;89.90;;;;;;5113914;27;20492;-46
2021/06/18 03:41:58;;;;;;;9.02;6.82;;;22.90;90.20;;;;;;5109054;28;20121;-48
2021/06/18 03:44:27;;;;;;;11.75;7.25;;;23.00;90.30;;;;;;5117224;27;20101;-47
2021/06/18 03:46:56;;;;;;;9.52;6.95;;;23.00;90.70;;;;;;5100495;28;20075;-48
2021/06/18 03:49:29;;;;;;;11.93;7.07;;;23.00;91.00;;;;;;5112717;27;20062;-48
2021/06/18 03:51:56;;;;;;;7.38;6.10;;;23.00;91.50;;;;;;5109547;28;20073;-50
2021/06/18 03:54:24;;;;;;;9.70;8.10;;;22.90;91.20;;;;;;5134065;27;20065;-46
2021/06/18 03:56:53;;;;;;;10.75;5.93;;;23.00;91.20;;;;;;5126490;27;20501;-47
2021/06/18 03:59:22;;;;;;;9.48;6.45;;;23.00;91.10;;;;;;5131608;27;20054;-48
2021/06/18 04:01:53;;;;;;;8.93;6.55;;;23.10;91.20;;;;;;5106160;28;20052;-47
2021/06/18 04:04:23;;;;;;;8.73;6.45;;;23.20;91.20;;;;;;5123733;27;20050;-50
2021/06/18 04:06:51;;;;;;;10.15;6.80;;;23.30;91.10;;;;;;5117622;27;20112;-50
2021/06/18 04:09:19;;;;;;;8.82;5.90;;;23.30;91.00;;;;;;5117684;27;20394;-46
2021/06/18 04:11:47;;;;;;;8.18;6.30;;;23.10;91.00;;;;;;5099924;28;20498;-46
2021/06/18 04:14:15;;;;;;;8.32;7.35;;;23.30;91.00;;;;;;5127034;27;20193;-51
2021/06/18 04:16:44;;;;;;;9.60;6.75;;;23.30;91.00;;;;;;5106712;28;20043;-50
2021/06/18 04:19:12;;;;;;;9.75;6.85;;;23.30;91.00;;;;;;5097018;28;20047;-49
2021/06/18 04:21:43;;;;;;;10.85;7.15;;;23.30;91.20;;;;;;5084062;28;20131;-48
2021/06/18 04:24:13;;;;;;;8.75;7.38;;;23.40;91.10;;;;;;5120896;27;20070;-47
2021/06/18 04:26:42;;;;;;;8.90;6.53;;;23.60;91.00;;;;;;5103732;28;20108;-47
2021/06/18 04:29:11;;;;;;;12.57;7.03;;;23.70;91.10;;;;;;5126459;27;20075;-46
2021/06/18 04:31:39;;;;;;;11.50;6.75;;;23.80;90.70;;;;;;5105983;27;20497;-47
2021/06/18 04:34:07;;;;;;;8.18;7.00;;;23.80;90.70;;;;;;5123564;27;20461;-47
2021/06/18 04:36:38;;;;;;;10.27;6.32;;;23.90;90.80;;;;;;5129687;27;20092;-47
2021/06/18 04:39:07;;;;;;;7.82;6.80;;;24.00;90.80;;;;;;5096090;27;20039;-47
2021/06/18 04:41:36;;;;;;;7.22;6.38;;;24.10;90.70;;;;;;5121508;27;20096;-47
2021/06/18 04:44:05;;;;;;;13.23;7.43;;;24.10;90.90;;;;;;5108415;27;20397;-47
2021/06/18 04:46:33;;;;;;;10.23;6.75;;;24.20;90.90;;;;;;5122645;27;20059;-51
2021/06/18 04:49:01;;;;;;;10.73;7.50;;;24.20;91.00;;;;;;5117032;27;20056;-48
2021/06/18 04:51:29;;;;;;;9.15;7.18;;;24.20;90.90;;;;;;5119574;27;20053;-46
2021/06/18 04:53:57;;;;;;;9.07;6.75;;;24.10;90.90;;;;;;5114479;27;20054;-48
2021/06/18 04:56:25;;;;;;;9.85;7.95;;;24.20;90.70;;;;;;5118348;27;20054;-47
2021/06/18 04:58:52;;;;;;;6.30;5.43;;;24.30;90.30;;;;;;5122251;27;20040;-46
2021/06/18 05:01:20;;;;;;;6.70;5.63;;;24.50;89.00;;;;;;5117035;27;20051;-56
2021/06/18 05:03:48;;;;;;;8.15;5.82;;;24.60;88.20;;;;;;5129794;27;20051;-50
2021/06/18 05:06:16;;;;;;;6.80;5.07;;;24.70;86.80;;;;;;5128683;27;20058;-50
2021/06/18 05:08:43;;;;;;;6.03;4.60;;;25.00;86.20;;;;;;5100779;28;20055;-48
2021/06/18 05:11:11;;;;;;;7.85;4.80;;;25.20;83.80;;;;;;5105463;27;20050;-52
2021/06/18 05:13:39;;;;;;;5.60;4.57;;;25.40;83.60;;;;;;5108486;27;20047;-46
2021/06/18 05:16:06;;;;;;;8.02;5.03;;;25.60;81.80;;;;;;5132350;27;20062;-46
2021/06/18 05:18:34;;;;;;;9.48;4.53;;;25.80;80.50;;;;;;5125490;27;20143;-51
2021/06/18 05:21:02;;;;;;;7.40;4.22;;;26.10;80.50;;;;;;5130768;27;20047;-52
2021/06/18 05:23:30;;;;;;;6.40;4.13;;;26.30;79.10;;;;;;5125439;27;20143;-46
2021/06/18 05:25:58;;;;;;;10.45;3.45;;;26.60;77.60;;;;;;5130349;27;20047;-52
2021/06/18 05:28:25;;;;;;;9.82;4.13;;;26.70;77.20;;;;;;5126765;27;20059;-46
2021/06/18 05:30:53;;;;;;;6.43;4.18;;;26.80;76.30;;;;;;5130896;27;20075;-47
2021/06/18 05:33:24;;;;;;;6.13;4.72;;;26.90;75.70;;;;;;5126037;27;20108;-47
2021/06/18 05:35:52;;;;;;;5.93;3.75;;;27.10;75.50;;;;;;5113734;27;20040;-48
2021/06/18 05:38:20;;;;;;;8.68;4.05;;;27.30;74.40;;;;;;5125661;27;20082;-46
2021/06/18 05:40:47;;;;;;;7.60;4.80;;;27.40;73.70;;;;;;5130770;27;20051;-46
2021/06/18 05:43:15;;;;;;;8.50;6.20;;;27.60;72.00;;;;;;5124859;27;20134;-46
2021/06/18 05:45:43;;;;;;;13.68;8.00;;;27.80;71.90;;;;;;5113567;27;20078;-46
2021/06/18 05:48:11;;;;;;;10.85;6.68;;;28.00;71.50;;;;;;5124890;27;20405;-46
2021/06/18 05:50:38;;;;;;;10.75;6.75;;;28.00;69.90;;;;;;5132246;27;20059;-46
2021/06/18 05:53:06;;;;;;;11.73;6.47;;;28.10;69.20;;;;;;5124559;27;20055;-47
2021/06/18 05:55:34;;;;;;;10.13;5.55;;;28.20;69.10;;;;;;5114218;27;20040;-47
2021/06/18 05:58:02;;;;;;;7.18;4.38;;;28.40;68.30;;;;;;5107224;27;20408;-48
2021/06/18 06:00:29;;;;;;;8.85;4.70;;;28.60;67.80;;;;;;5132987;27;20051;-46
2021/06/18 06:03:09;;;;;;;6.35;4.35;;;28.70;66.90;;;;;;5118402;27;20055;-46
2021/06/18 06:05:37;;;;;;;9.45;4.28;;;28.80;66.70;;;;;;5080355;27;20039;-46
2021/06/18 06:08:12;;;;;;;6.30;3.30;;;28.90;65.60;;;;;;5125435;27;20060;-46
2021/06/18 06:10:44;;;;;;;6.97;3.33;;;29.10;65.00;;;;;;5131265;27;20043;-46
2021/06/18 06:13:11;;;;;;;4.38;3.15;;;29.20;62.00;;;;;;5104846;28;20089;-52
2021/06/18 06:15:39;;;;;;;4.20;2.95;;;29.40;61.60;;;;;;5115125;27;20392;-52
2021/06/18 06:18:07;;;;;;;5.22;2.88;;;29.40;60.50;;;;;;5107492;27;20204;-51
2021/06/18 06:20:36;;;;;;;3.72;2.65;;;29.50;59.80;;;;;;5131975;27;20043;-48
2021/06/18 06:23:04;;;;;;;3.85;2.58;;;29.50;60.10;;;;;;5123880;27;20569;-47
2021/06/18 06:25:32;;;;;;;4.90;2.53;;;29.60;59.60;;;;;;5132029;27;20039;-47
2021/06/18 06:28:00;;;;;;;5.75;3.15;;;29.60;59.80;;;;;;5089166;27;20549;-47
2021/06/18 06:30:29;;;;;;;3.47;2.53;;;29.70;59.60;;;;;;5131675;27;20126;-49
2021/06/18 06:32:56;;;;;;;3.63;2.50;;;29.70;59.60;;;;;;5105433;27;20404;-48
2021/06/18 06:35:24;;;;;;;4.40;2.83;;;29.80;59.50;;;;;;5131806;27;20051;-46
2021/06/18 06:37:54;;;;;;;3.70;2.67;;;29.90;59.90;;;;;;5085692;28;20048;-51
2021/06/18 06:40:23;;;;;;;5.13;2.97;;;29.80;59.80;;;;;;5060790;28;20494;-46
2021/06/18 06:42:52;;;;;;;5.10;2.90;;;29.80;60.00;;;;;;5121679;27;20058;-47
2021/06/18 06:45:19;;;;;;;5.80;3.47;;;29.90;60.00;;;;;;5114671;27;20465;-46
2021/06/18 06:47:47;;;;;;;4.50;3.25;;;30.00;59.80;;;;;;5104584;27;20047;-47
2021/06/18 06:50:15;;;;;;;5.00;3.15;;;30.10;59.80;;;;;;5132337;27;20174;-51
2021/06/18 06:52:43;;;;;;;4.95;3.42;;;30.20;59.10;;;;;;5121485;27;20054;-49
2021/06/18 06:55:12;;;;;;;4.90;3.10;;;30.20;59.40;;;;;;5132837;27;20047;-50
2021/06/18 06:57:39;;;;;;;8.27;3.50;;;30.30;59.50;;;;;;5120723;28;20051;-48
2021/06/18 07:00:08;;;;;;;4.95;3.10;;;30.40;59.60;;;;;;5132830;28;20083;-50
2021/06/18 07:02:36;;;;;;;4.95;2.95;;;30.60;59.70;;;;;;5124310;28;20086;-49
2021/06/18 07:05:05;;;;;;;7.28;3.30;;;30.70;59.30;;;;;;5112403;28;20059;-47
2021/06/18 07:07:33;;;;;;;4.82;2.60;;;30.90;59.30;;;;;;5119410;28;20082;-47
2021/06/18 07:10:01;;;;;;;5.32;2.95;;;30.90;58.70;;;;;;5133202;28;20500;-47
2021/06/18 07:12:28;;;;;;;4.03;3.00;;;31.10;58.40;;;;;;5121351;27;20097;-46
2021/06/18 07:14:56;;;;;;;4.68;3.05;;;31.10;58.60;;;;;;5133800;27;20129;-48
2021/06/18 07:17:25;;;;;;;7.60;2.92;;;31.10;57.80;;;;;;5120910;27;20517;-48
2021/06/18 07:19:54;;;;;;;6.70;3.20;;;31.20;57.50;;;;;;5133941;27;20405;-47
2021/06/18 07:22:22;;;;;;;5.32;2.60;;;31.20;57.70;;;;;;5100110;28;20048;-51
2021/06/18 07:24:51;;;;;;;5.65;2.55;;;31.30;57.40;;;;;;5134059;27;20433;-50
2021/06/18 07:27:20;;;;;;;4.22;2.80;;;31.40;57.90;;;;;;5119824;28;20044;-49
2021/06/18 07:29:48;;;;;;;7.32;3.10;;;31.40;57.20;;;;;;5115488;28;20511;-50
2021/06/18 07:32:16;;;;;;;5.53;2.83;;;31.50;57.60;;;;;;5119691;28;20138;-52
2021/06/18 07:34:44;;;;;;;4.15;2.60;;;31.50;57.70;;;;;;5091450;28;20051;-49
2021/06/18 07:37:12;;;;;;;5.32;2.88;;;31.50;57.70;;;;;;5110653;28;20089;-49
2021/06/18 07:39:46;;;;;;;5.43;2.80;;;31.70;57.70;;;;;;5093354;28;20049;-50
2021/06/18 07:42:25;;;;;;;6.75;3.42;;;31.80;57.50;;;;;;5112965;28;20048;-51
2021/06/18 07:44:53;;;;;;;5.03;3.15;;;31.90;57.50;;;;;;5132298;28;20111;-50
2021/06/18 07:47:23;;;;;;;3.67;3.05;;;31.90;57.80;;;;;;5119505;28;20401;-49
2021/06/18 07:49:52;;;;;;;4.60;3.28;;;31.90;58.10;;;;;;5137241;27;20050;-49
2021/06/18 07:52:22;;;;;;;3.92;2.88;;;32.10;57.90;;;;;;5123648;27;20051;-51
2021/06/18 07:54:55;;;;;;;5.25;3.10;;;32.10;57.80;;;;;;5136500;27;20039;-51
2021/06/18 07:57:23;;;;;;;6.53;3.70;;;32.20;57.60;;;;;;5106349;27;20049;-47
2021/06/18 07:59:51;;;;;;;5.10;3.90;;;32.30;58.00;;;;;;5136406;27;20404;-48
2021/06/18 08:02:19;;;;;;;3.75;2.90;;;32.30;57.80;;;;;;5123397;27;20063;-48
2021/06/18 08:04:49;;;;;;;4.47;3.35;;;32.40;57.50;;;;;;5136125;27;20047;-47
2021/06/18 08:07:17;;;;;;;4.68;3.10;;;32.40;57.50;;;;;;5102803;28;20050;-49
2021/06/18 08:09:45;;;;;;;6.05;3.08;;;32.40;57.20;;;;;;5094872;28;20129;-53
2021/06/18 08:12:13;;;;;;;5.90;3.33;;;32.30;57.10;;;;;;5117445;27;20047;-47
2021/06/18 08:14:41;;;;;;;4.20;2.97;;;32.30;57.50;;;;;;5135371;27;20100;-48
2021/06/18 08:17:08;;;;;;;4.43;2.70;;;32.30;57.90;;;;;;5125524;27;20055;-44
2021/06/18 08:19:36;;;;;;;2.65;2.33;;;32.30;58.00;;;;;;5134652;27;20142;-45
2021/06/18 08:22:05;;;;;;;6.30;3.25;;;32.40;57.90;;;;;;5126073;27;20134;-46
2021/06/18 08:24:34;;;;;;;6.88;3.95;;;32.40;57.70;;;;;;5117000;27;20500;-45
2021/06/18 08:27:02;;;;;;;7.28;3.95;;;32.30;57.60;;;;;;5124651;27;20070;-45
2021/06/18 08:29:31;;;;;;;3.92;2.95;;;32.30;57.90;;;;;;5133597;27;20515;-45
2021/06/18 08:31:59;;;;;;;4.50;2.92;;;32.20;58.00;;;;;;5104691;28;20176;-44
2021/06/18 08:34:27;;;;;;;4.13;3.25;;;32.20;57.50;;;;;;5132165;27;20051;-44
2021/06/18 08:36:55;;;;;;;5.72;3.30;;;32.10;57.20;;;;;;5125988;27;20051;-45
2021/06/18 08:39:23;;;;;;;5.57;3.20;;;31.90;57.60;;;;;;5132604;27;20138;-49
2021/06/18 08:41:51;;;;;;;8.35;3.78;;;31.90;57.70;;;;;;5126780;27;20043;-51
2021/06/18 08:44:20;;;;;;;4.60;2.80;;;31.80;57.90;;;;;;5132040;27;20051;-50
2021/06/18 08:46:48;;;;;;;4.28;2.90;;;31.70;58.10;;;;;;5109981;28;20050;-49
2021/06/18 08:49:16;;;;;;;4.18;2.92;;;31.70;57.80;;;;;;5114224;27;20050;-48
2021/06/18 08:51:44;;;;;;;4.45;3.35;;;31.90;57.80;;;;;;5127236;27;20048;-49
2021/06/18 08:54:12;;;;;;;4.65;2.72;;;31.90;57.40;;;;;;5113610;27;20051;-47
2021/06/18 08:56:40;;;;;;;5.15;3.28;;;31.90;57.40;;;;;;5127596;27;20052;-46
2021/06/18 08:59:08;;;;;;;4.55;2.50;;;31.70;57.30;;;;;;5113108;27;20532;-47
2021/06/18 09:01:37;;;;;;;4.00;2.88;;;31.50;57.40;;;;;;5127980;27;20054;-49
2021/06/18 09:04:06;;;;;;;3.65;2.80;;;31.30;57.40;;;;;;5129182;27;20043;-47
2021/06/18 09:06:42;;;;;;;3.78;2.47;;;31.20;57.70;;;;;;5111280;27;20039;-51
2021/06/18 09:09:21;;;;;;;4.78;3.00;;;31.10;58.00;;;;;;5131300;27;20074;-51
2021/06/18 09:11:57;;;;;;;4.85;2.95;;;31.00;57.90;;;;;;5126974;27;20130;-47
2021/06/18 09:14:33;;;;;;;3.45;2.80;;;30.90;58.30;;;;;;5131704;27;20133;-47
2021/06/18 09:17:20;;;;;;;4.40;3.17;;;30.90;58.10;;;;;;5103484;28;20139;-46
2021/06/18 09:19:52;;;;;;;6.35;3.13;;;30.80;58.20;;;;;;5076984;28;20048;-46
2021/06/18 09:22:41;;;;;;;4.57;2.83;;;30.90;58.30;;;;;;5116995;27;20096;-48
2021/06/18 09:25:27;;;;;;;9.20;2.72;;;30.80;58.00;;;;;;5117410;27;20054;-47
2021/06/18 09:28:04;;;;;;;5.15;3.38;;;30.80;58.10;;;;;;5104994;27;20084;-46
2021/06/18 09:30:42;;;;;;;4.35;2.80;;;30.70;58.30;;;;;;5114723;27;20043;-49
2021/06/18 09:33:23;;;;;;;5.07;2.88;;;30.70;58.00;;;;;;5101154;28;20108;-48
2021/06/18 09:36:05;;;;;;;3.63;2.58;;;30.60;57.90;;;;;;5117004;27;20047;-47
2021/06/18 09:38:48;;;;;;;6.32;2.67;;;30.60;58.10;;;;;;5126231;27;20138;-48
2021/06/18 09:41:50;;;;;;;3.63;2.90;;;30.80;58.20;;;;;;5131078;27;20118;-52
2021/06/18 09:44:20;;;;;;;3.22;2.55;;;31.20;58.10;;;;;;5130044;27;20051;-48
2021/06/18 09:46:53;;;;;;;4.32;3.13;;;31.60;57.40;;;;;;5124422;27;20445;-47
2021/06/18 09:49:41;;;;;;;6.35;2.97;;;31.60;56.80;;;;;;5095626;27;20112;-49
2021/06/18 09:52:16;;;;;;;8.32;2.78;;;31.80;56.80;;;;;;5122556;27;20520;-49
2021/06/18 09:54:49;;;;;;;5.63;3.03;;;32.00;56.50;;;;;;5092822;28;20127;-52
2021/06/18 09:57:19;;;;;;;4.43;3.25;;;32.10;56.40;;;;;;5114627;27;20116;-51
2021/06/18 09:59:59;;;;;;;3.28;2.75;;;32.10;56.40;;;;;;5091791;28;20044;-50
2021/06/18 10:02:41;;;;;;;4.35;2.90;;;31.90;56.30;;;;;;5118480;27;20365;-51
2021/06/18 10:05:14;;;;;;;4.15;3.15;;;31.70;56.40;;;;;;5133926;27;20047;-48
2021/06/18 10:07:43;;;;;;;4.75;2.58;;;31.40;56.70;;;;;;5120704;27;20062;-50
2021/06/18 10:10:23;;;;;;;3.90;3.20;;;31.30;57.10;;;;;;5131952;27;20043;-54
2021/06/18 10:12:52;;;;;;;4.82;3.10;;;31.00;57.20;;;;;;5102587;28;20526;-47
2021/06/18 10:15:21;;;;;;;3.97;3.58;;;30.80;57.40;;;;;;5093802;28;20056;-48
2021/06/18 10:17:52;;;;;;;3.90;3.08;;;30.50;57.50;;;;;;5121132;27;20048;-52
2021/06/18 10:20:28;;;;;;;3.70;2.90;;;30.50;57.80;;;;;;5131246;27;20043;-47
2021/06/18 10:23:03;;;;;;;3.95;3.03;;;30.60;57.70;;;;;;5121273;27;20491;-48
2021/06/18 10:25:39;;;;;;;6.85;3.38;;;30.80;57.50;;;;;;5130139;27;20059;-48
2021/06/18 10:28:17;;;;;;;3.60;2.67;;;30.90;57.10;;;;;;5130244;27;20052;-48
2021/06/18 10:30:45;;;;;;;4.72;2.90;;;31.00;56.90;;;;;;5098612;27;20051;-46
2021/06/18 10:33:28;;;;;;;8.63;3.45;;;31.20;57.10;;;;;;5123904;27;20055;-47
2021/06/18 10:36:03;;;;;;;4.30;2.70;;;31.10;57.10;;;;;;5109791;27;20085;-47
2021/06/18 10:38:45;;;;;;;7.97;2.97;;;31.00;57.70;;;;;;5123015;27;20047;-49
2021/06/18 10:41:17;;;;;;;5.50;3.50;;;31.10;58.40;;;;;;5111704;27;20063;-50
2021/06/18 10:43:47;;;;;;;4.28;3.30;;;31.10;58.20;;;;;;5090313;27;20404;-46
2021/06/18 10:46:32;;;;;;;4.05;2.95;;;31.20;57.80;;;;;;5129296;27;20051;-49
2021/06/18 10:49:09;;;;;;;6.07;3.40;;;31.20;57.60;;;;;;5127519;27;20483;-49
2021/06/18 10:51:43;;;;;;;4.35;3.17;;;31.10;57.60;;;;;;5124951;27;20124;-50
2021/06/18 10:54:29;;;;;;;5.68;3.58;;;31.20;57.60;;;;;;5127667;27;20492;-47
2021/06/18 10:57:18;;;;;;;5.35;2.85;;;31.40;57.40;;;;;;5102818;28;20048;-47
2021/06/18 10:59:53;;;;;;;5.35;3.20;;;31.40;56.90;;;;;;5061415;28;20040;-48
2021/06/18 11:02:21;;;;;;;5.32;3.53;;;31.30;56.70;;;;;;5100699;28;20051;-47
2021/06/18 11:04:55;;;;;;;4.40;2.83;;;31.40;56.80;;;;;;5115688;28;20058;-49
2021/06/18 11:07:36;;;;;;;5.68;3.25;;;31.50;56.80;;;;;;5121046;27;20062;-52
2021/06/18 11:10:35;;;;;;;5.10;3.92;;;31.20;56.50;;;;;;5098833;28;20480;-50
2021/06/18 11:13:07;;;;;;;4.28;2.65;;;31.30;56.80;;;;;;5122109;28;20134;-53
2021/06/18 11:15:40;;;;;;;4.90;2.60;;;31.30;56.70;;;;;;5130762;27;20055;-53
2021/06/18 11:18:14;;;;;;;4.40;3.15;;;31.10;56.70;;;;;;5096369;28;20103;-47
2021/06/18 11:20:42;;;;;;;3.90;3.22;;;31.10;56.90;;;;;;5097141;28;20070;-50
2021/06/18 11:23:17;;;;;;;6.57;3.70;;;31.20;56.90;;;;;;5117266;28;20527;-49
2021/06/18 11:25:44;;;;;;;5.43;3.42;;;31.20;56.80;;;;;;5117235;27;20050;-50
2021/06/18 11:28:22;;;;;;;4.90;3.53;;;31.10;56.90;;;;;;5128531;27;20051;-50
2021/06/18 11:31:21;;;;;;;3.85;2.95;;;31.00;56.90;;;;;;5115891;27;20047;-48
2021/06/18 11:33:51;;;;;;;4.38;3.65;;;30.80;57.50;;;;;;5122232;27;20051;-48
2021/06/18 11:36:24;;;;;;;4.70;3.25;;;30.70;57.70;;;;;;5115356;27;20055;-49
2021/06/18 11:38:58;;;;;;;6.47;3.58;;;30.70;57.80;;;;;;5112632;27;20396;-49
2021/06/18 11:41:32;;;;;;;5.32;3.58;;;30.70;57.70;;;;;;5132216;27;20062;-50
2021/06/18 11:44:01;;;;;;;3.97;3.17;;;30.80;57.80;;;;;;5130278;27;20059;-53
2021/06/18 11:46:32;;;;;;;6.95;3.42;;;30.90;57.90;;;;;;5133739;27;20560;-52
2021/06/18 11:49:17;;;;;;;4.30;3.30;;;31.00;57.90;;;;;;5121749;27;20109;-53
2021/06/18 11:51:47;;;;;;;3.42;2.80;;;31.10;58.10;;;;;;5084225;28;20536;-50
2021/06/18 11:54:23;;;;;;;3.95;3.05;;;31.10;58.30;;;;;;5128122;27;20553;-49
2021/06/18 11:56:59;;;;;;;4.20;3.08;;;31.20;58.40;;;;;;5127247;27;20039;-52
2021/06/18 11:59:26;;;;;;;;;;;31.20;58.60;;;;;;5117218;27;20180;-46
2021/06/18 12:01:54;;;;;;;4.18;2.90;;;31.20;58.10;;;;;;5127832;27;20337;-51
2021/06/18 12:04:22;;;;;;;5.45;3.53;;;31.10;58.20;;;;;;5132723;27;20062;-46
2021/06/18 12:06:50;;;;;;;3.25;2.88;;;31.00;58.40;;;;;;5106942;28;20048;-53
2021/06/18 12:09:22;;;;;;;4.68;3.05;;;31.00;58.60;;;;;;5111576;27;20074;-51
2021/06/18 12:11:53;;;;;;;4.55;2.90;;;31.10;58.70;;;;;;5128178;27;20055;-53
2021/06/18 12:14:21;;;;;;;4.20;3.30;;;31.10;58.20;;;;;;5115687;27;20065;-49
2021/06/18 12:16:50;;;;;;;5.53;2.78;;;31.10;58.10;;;;;;5127111;27;20497;-49
2021/06/18 12:19:22;;;;;;;4.32;3.22;;;31.00;57.90;;;;;;5131786;27;20107;-47
2021/06/18 12:22:05;;;;;;;4.18;3.28;;;31.00;57.90;;;;;;5126827;27;20051;-53
2021/06/18 12:24:40;;;;;;;7.05;3.38;;;30.90;58.20;;;;;;5135254;27;20051;-50
2021/06/18 12:27:11;;;;;;;4.43;3.30;;;30.80;58.00;;;;;;5103927;28;20131;-50
2021/06/18 12:29:41;;;;;;;4.20;3.17;;;30.70;58.20;;;;;;5133903;27;20446;-47
2021/06/18 12:32:10;;;;;;;6.57;3.40;;;30.60;58.40;;;;;;5103164;28;20056;-49
2021/06/18 12:34:59;;;;;;;4.70;3.47;;;30.50;58.60;;;;;;5115819;28;20051;-56
2021/06/18 12:37:29;;;;;;;4.60;3.10;;;30.50;59.00;;;;;;5123271;27;20048;-54
2021/06/18 12:40:14;;;;;;;4.05;3.08;;;30.50;58.70;;;;;;5135225;27;20063;-49
2021/06/18 12:42:47;;;;;;;4.05;2.97;;;30.50;59.00;;;;;;5126375;27;20071;-52
2021/06/18 12:45:21;;;;;;;4.22;3.10;;;30.60;59.10;;;;;;5097090;27;20052;-49
2021/06/18 12:48:19;;;;;;;4.78;2.58;;;30.70;58.80;;;;;;5124133;27;20039;-48
2021/06/18 12:50:55;;;;;;;3.72;3.10;;;30.80;59.20;;;;;;5114389;27;20518;-51
2021/06/18 12:53:38;;;;;;;4.82;3.72;;;30.90;59.70;;;;;;5125536;27;20058;-49
2021/06/18 12:56:24;;;;;;;5.93;3.08;;;31.00;59.80;;;;;;5132815;27;20043;-49
2021/06/18 12:58:54;;;;;;;6.43;4.03;;;31.10;58.40;;;;;;5121577;27;20055;-48
2021/06/18 13:01:27;;;;;;;4.70;3.75;;;31.20;58.10;;;;;;5129869;27;20146;-49
2021/06/18 13:04:04;;;;;;;8.10;3.13;;;31.20;57.70;;;;;;5130425;27;20505;-48
2021/06/18 13:06:42;;;;;;;4.25;3.60;;;31.20;57.90;;;;;;5129669;27;20085;-49
2021/06/18 13:09:11;;;;;;;6.25;3.25;;;31.30;58.10;;;;;;5130922;27;20051;-47